createdAt,value
2022-10-14T00:02:00.558Z,94933.53
2022-10-14T00:04:27.448Z,94940.91
2022-10-14T00:06:54.080Z,94938.72
2022-10-14T00:09:20.741Z,94944.09
2022-10-14T00:11:47.921Z,94947.69
2022-10-14T00:14:17.870Z,94944.25
2022-10-14T00:16:46.904Z,94944.47
2022-10-14T00:19:15.284Z,94950.31
2022-10-14T00:21:45.729Z,94956.13
2022-10-14T00:24:14.255Z,94956.91
2022-10-14T00:26:41.039Z,94954.41
2022-10-14T00:29:13.168Z,94955.84
2022-10-14T00:31:39.976Z,94951.78
2022-10-14T00:34:06.638Z,94958.00
2022-10-14T00:36:33.287Z,94952.72
2022-10-14T00:39:00.109Z,94952.22
2022-10-14T00:41:32.707Z,94956.28
2022-10-14T00:44:07.275Z,94958.00
2022-10-14T00:46:37.193Z,94958.72
2022-10-14T00:49:13.536Z,94961.34
2022-10-14T00:51:42.763Z,94948.88
2022-10-14T00:54:12.789Z,94960.88
2022-10-14T00:56:39.749Z,94957.50
2022-10-14T00:59:07.760Z,94966.63
2022-10-14T01:01:34.584Z,94956.06
2022-10-14T01:04:01.323Z,94964.69
2022-10-14T01:06:43.016Z,94960.63
2022-10-14T01:09:24.445Z,94968.56
2022-10-14T01:12:29.475Z,94954.66
2022-10-14T01:15:05.030Z,94965.69
2022-10-14T01:18:15.662Z,94964.97
2022-10-14T01:20:51.466Z,94960.69
2022-10-14T01:23:39.996Z,94959.50
2022-10-14T01:26:24.509Z,94962.84
2022-10-14T01:29:02.551Z,94953.47
2022-10-14T01:31:33.877Z,94949.41
2022-10-14T01:34:05.288Z,94950.13
2022-10-14T01:36:37.517Z,94952.78
2022-10-14T01:39:08.173Z,94948.72
2022-10-14T01:41:42.228Z,94955.91
2022-10-14T01:44:11.710Z,94950.41
2022-10-14T01:46:40.726Z,94951.81
2022-10-14T01:49:20.646Z,94946.06
2022-10-14T01:51:55.160Z,94951.09
2022-10-14T01:54:33.721Z,94949.69
2022-10-14T01:57:04.620Z,94950.41
2022-10-14T01:59:33.027Z,94949.69
2022-10-14T02:02:02.906Z,94944.41
2022-10-14T02:04:29.586Z,94951.09
2022-10-14T02:07:08.493Z,94950.91
2022-10-14T02:09:47.075Z,94948.03
2022-10-14T02:12:26.482Z,94950.00
2022-10-14T02:15:07.410Z,94949.75
2022-10-14T02:17:43.297Z,94942.59
2022-10-14T02:20:28.632Z,94940.41
2022-10-14T02:23:02.143Z,94938.03
2022-10-14T02:25:39.320Z,94948.31
2022-10-14T02:28:09.275Z,94935.63
2022-10-14T02:30:41.714Z,94937.53
2022-10-14T02:33:08.714Z,94930.34
2022-10-14T02:35:38.570Z,94928.41
2022-10-14T02:38:07.061Z,94928.41
2022-10-14T02:40:38.724Z,94930.34
2022-10-14T02:43:08.067Z,94930.81
2022-10-14T02:45:35.119Z,94929.41
2022-10-14T02:48:01.768Z,94930.13
2022-10-14T02:50:28.555Z,94929.41
2022-10-14T02:52:55.168Z,94926.78
2022-10-14T02:55:22.421Z,94933.25
2022-10-14T02:57:51.904Z,94931.34
2022-10-14T03:00:18.577Z,94931.84
2022-10-14T03:02:45.228Z,94925.03
2022-10-14T03:05:12.119Z,94916.81
2022-10-14T03:07:40.025Z,94924.44
2022-10-14T03:10:06.987Z,94918.69
2022-10-14T03:12:33.664Z,94920.09
2022-10-14T03:15:00.289Z,94915.81
2022-10-14T03:17:27.019Z,94925.38
2022-10-14T03:19:53.708Z,94923.47
2022-10-14T03:22:20.640Z,94926.81
2022-10-14T03:24:47.427Z,94922.75
2022-10-14T03:27:14.141Z,94929.25
2022-10-14T03:29:40.880Z,94914.13
2022-10-14T03:32:07.655Z,94911.47
2022-10-14T03:34:34.286Z,94918.69
2022-10-14T03:37:01.110Z,94911.25
2022-10-14T03:39:28.061Z,94904.06
2022-10-14T03:41:54.744Z,94900.69
2022-10-14T03:44:21.429Z,94907.19
2022-10-14T03:46:48.179Z,94903.84
2022-10-14T03:49:14.823Z,94900.50
2022-10-14T03:51:41.503Z,94903.84
2022-10-14T03:54:08.382Z,94903.13
2022-10-14T03:56:35.060Z,94903.63
2022-10-14T03:59:01.664Z,94895.72
2022-10-14T04:01:28.386Z,94895.03
2022-10-14T04:03:55.009Z,94888.56
2022-10-14T04:06:21.695Z,94894.78
2022-10-14T04:08:48.486Z,94887.59
2022-10-14T04:11:15.278Z,94883.50
2022-10-14T04:13:41.881Z,94880.84
2022-10-14T04:16:10.336Z,94880.84
2022-10-14T04:18:37.099Z,94879.44
2022-10-14T04:21:09.342Z,94872.75
2022-10-14T04:23:36.199Z,94873.47
2022-10-14T04:26:05.426Z,94872.75
2022-10-14T04:28:33.338Z,94868.69
2022-10-14T04:31:00.571Z,94869.91
2022-10-14T04:33:27.277Z,94867.75
2022-10-14T04:36:01.888Z,94864.63
2022-10-14T04:38:29.359Z,94870.84
2022-10-14T04:40:56.170Z,94865.38
2022-10-14T04:43:23.106Z,94855.75
2022-10-14T04:45:50.506Z,94849.75
2022-10-14T04:48:18.259Z,94854.84
2022-10-14T04:50:44.996Z,94848.34
2022-10-14T04:53:13.749Z,94849.56
2022-10-14T04:55:41.094Z,94852.69
2022-10-14T04:58:07.892Z,94849.34
2022-10-14T05:00:34.556Z,94845.28
2022-10-14T05:03:01.190Z,94841.94
2022-10-14T05:05:27.839Z,94838.56
2022-10-14T05:07:54.485Z,94834.72
2022-10-14T05:10:21.927Z,94831.38
2022-10-14T05:12:49.293Z,94822.56
2022-10-14T05:15:16.371Z,94825.91
2022-10-14T05:17:44.875Z,94826.59
2022-10-14T05:20:12.358Z,94826.38
2022-10-14T05:22:45.481Z,94825.19
2022-10-14T05:25:12.372Z,94820.41
2022-10-14T05:27:39.419Z,94822.31
2022-10-14T05:30:06.712Z,94802.72
2022-10-14T05:32:33.464Z,94818.25
2022-10-14T05:35:00.104Z,94822.09
2022-10-14T05:37:26.887Z,94824.72
2022-10-14T05:39:55.233Z,94822.81
2022-10-14T05:42:22.266Z,94818.00
2022-10-14T05:44:49.225Z,94812.25
2022-10-14T05:47:15.937Z,94812.72
2022-10-14T05:49:42.919Z,94806.78
2022-10-14T05:52:09.707Z,94808.19
2022-10-14T05:54:36.406Z,94808.69
2022-10-14T05:57:06.352Z,94798.88
2022-10-14T05:59:34.818Z,94802.72
2022-10-14T06:02:02.495Z,94808.00
2022-10-14T06:04:29.383Z,94805.38
2022-10-14T06:06:59.342Z,94800.09
2022-10-14T06:09:26.091Z,94799.34
2022-10-14T06:11:53.026Z,94798.63
2022-10-14T06:14:19.638Z,94808.00
2022-10-14T06:16:49.806Z,94804.63
2022-10-14T06:19:16.624Z,94804.63
2022-10-14T06:21:44.945Z,94802.00
2022-10-14T06:24:11.778Z,94796.72
2022-10-14T06:26:38.441Z,94797.44
2022-10-14T06:29:05.255Z,94802.19
2022-10-14T06:31:32.658Z,94796.91
2022-10-14T06:33:59.618Z,94794.28
2022-10-14T06:36:26.829Z,94793.59
2022-10-14T06:38:53.435Z,94787.63
2022-10-14T06:41:20.119Z,94782.91
2022-10-14T06:43:46.761Z,94785.47
2022-10-14T06:46:13.441Z,94786.16
2022-10-14T06:48:40.171Z,94782.81
2022-10-14T06:51:07.031Z,94794.81
2022-10-14T06:53:33.682Z,94783.53
2022-10-14T06:56:02.914Z,94789.53
2022-10-14T06:58:30.227Z,94788.81
2022-10-14T07:01:03.121Z,94786.91
2022-10-14T07:03:30.103Z,94785.69
2022-10-14T07:05:56.835Z,94787.63
2022-10-14T07:08:23.439Z,94788.53
2022-10-14T07:10:50.171Z,94782.03
2022-10-14T07:13:16.935Z,94777.50
2022-10-14T07:15:43.628Z,94765.81
2022-10-14T07:18:10.299Z,94782.00
2022-10-14T07:20:36.951Z,94780.78
2022-10-14T07:23:03.688Z,94779.34
2022-10-14T07:25:30.460Z,94769.25
2022-10-14T07:27:57.090Z,94780.03
2022-10-14T07:30:23.886Z,94774.97
2022-10-14T07:32:50.815Z,94781.31
2022-10-14T07:35:19.138Z,94783.13
2022-10-14T07:37:46.480Z,94785.53
2022-10-14T07:40:13.647Z,94778.53
2022-10-14T07:42:40.309Z,94788.88
2022-10-14T07:45:10.695Z,94790.72
2022-10-14T07:47:37.402Z,94781.63
2022-10-14T07:50:04.319Z,94789.72
2022-10-14T07:52:31.011Z,94792.56
2022-10-14T07:54:57.802Z,94784.59
2022-10-14T07:57:25.116Z,94787.47
2022-10-14T07:59:52.699Z,94788.22
2022-10-14T08:02:19.823Z,94802.78
2022-10-14T08:04:47.314Z,94801.56
2022-10-14T08:07:17.059Z,94797.94
2022-10-14T08:09:43.996Z,94793.09
2022-10-14T08:12:10.795Z,94797.66
2022-10-14T08:14:37.436Z,94801.25
2022-10-14T08:17:04.138Z,94790.19
2022-10-14T08:19:31.093Z,94793.75
2022-10-14T08:21:57.858Z,94794.19
2022-10-14T08:24:24.510Z,94800.16
2022-10-14T08:26:56.583Z,94791.25
2022-10-14T08:29:23.872Z,94790.75
2022-10-14T08:31:51.544Z,94790.25
2022-10-14T08:34:21.823Z,94787.84
2022-10-14T08:36:49.096Z,94793.56
2022-10-14T08:39:18.493Z,94779.84
2022-10-14T08:42:16.344Z,94788.19
2022-10-14T08:44:50.816Z,94777.16
2022-10-14T08:47:23.904Z,94782.34
2022-10-14T08:50:02.824Z,94773.72
2022-10-14T08:52:43.118Z,94785.72
2022-10-14T08:55:39.784Z,94787.56
2022-10-14T08:58:15.118Z,94783.69
2022-10-14T09:00:45.910Z,94777.69
2022-10-14T09:03:24.835Z,94780.53
2022-10-14T09:05:58.855Z,94779.25
2022-10-14T09:08:33.512Z,94780.91
2022-10-14T09:11:00.379Z,94773.88
2022-10-14T09:13:39.914Z,94783.47
2022-10-14T09:16:17.599Z,94779.09
2022-10-14T09:19:02.809Z,94780.31
2022-10-14T09:21:53.029Z,94774.25
2022-10-14T09:24:27.171Z,94771.22
2022-10-14T09:27:11.764Z,94774.94
2022-10-14T09:29:46.960Z,94769.75
2022-10-14T09:32:27.845Z,94765.19
2022-10-14T09:34:56.315Z,94765.41
2022-10-14T09:37:33.117Z,94770.88
2022-10-14T09:40:03.547Z,94767.00
2022-10-14T09:42:42.585Z,94772.00
2022-10-14T09:45:13.397Z,94766.66
2022-10-14T09:47:45.935Z,94759.41
2022-10-14T09:50:22.253Z,94759.41
2022-10-14T09:52:55.688Z,94762.38
2022-10-14T09:55:24.460Z,94765.63
2022-10-14T09:58:05.433Z,94763.19
2022-10-14T10:00:34.457Z,94760.94
2022-10-14T10:03:04.883Z,94758.72
2022-10-14T10:05:33.531Z,94766.31
2022-10-14T10:08:18.932Z,94760.81
2022-10-14T10:11:09.836Z,94757.38
2022-10-14T10:13:40.221Z,94757.06
2022-10-14T10:16:17.782Z,94750.25
2022-10-14T10:18:44.490Z,94756.66
2022-10-14T10:21:24.949Z,94744.53
2022-10-14T10:24:03.597Z,94744.09
2022-10-14T10:26:33.653Z,94746.59
2022-10-14T10:29:05.344Z,94739.53
2022-10-14T10:32:01.211Z,94736.28
2022-10-14T10:34:45.988Z,94742.66
2022-10-14T10:37:41.907Z,94742.56
2022-10-14T10:40:31.566Z,94737.53
2022-10-14T10:43:18.665Z,94732.84
2022-10-14T10:46:17.645Z,94731.78
2022-10-14T10:48:51.529Z,94725.25
2022-10-14T10:51:27.791Z,94724.09
2022-10-14T10:54:07.722Z,94720.63
2022-10-14T10:56:51.443Z,94730.38
2022-10-14T10:59:30.484Z,94720.72
2022-10-14T11:02:33.523Z,94723.34
2022-10-14T11:05:10.996Z,94723.75
2022-10-14T11:08:07.780Z,94710.19
2022-10-14T11:11:36.126Z,94711.81
2022-10-14T11:14:02.886Z,94713.22
2022-10-14T11:16:35.670Z,94704.44
2022-10-14T11:19:21.176Z,94693.50
2022-10-14T11:22:14.076Z,94696.53
2022-10-14T11:25:07.845Z,94694.75
2022-10-14T11:27:49.009Z,94683.63
2022-10-14T11:30:17.797Z,94687.72
2022-10-14T11:33:15.815Z,94684.56
2022-10-14T11:35:51.614Z,94679.56
2022-10-14T11:38:20.858Z,94671.31
2022-10-14T11:41:18.200Z,94675.91
2022-10-14T11:43:58.184Z,94668.47
2022-10-14T11:46:29.258Z,94667.44
2022-10-14T11:49:04.210Z,94663.38
2022-10-14T11:51:35.954Z,94660.59
2022-10-14T11:54:04.447Z,94659.03
2022-10-14T11:56:36.935Z,94658.16
2022-10-14T11:59:38.593Z,94657.63
2022-10-14T12:02:17.858Z,94662.78
2022-10-14T12:04:52.660Z,94660.72
2022-10-14T12:07:36.049Z,94655.06
2022-10-14T12:10:13.826Z,94653.34
2022-10-14T12:12:41.614Z,94649.59
2022-10-14T12:15:17.925Z,94652.59
2022-10-14T12:18:04.681Z,94643.22
2022-10-14T12:20:38.705Z,94654.72
2022-10-14T12:23:08.630Z,94650.84
2022-10-14T12:25:51.580Z,94657.00
2022-10-14T12:28:20.139Z,94658.91
2022-10-14T12:30:47.855Z,94670.94
2022-10-14T12:33:22.546Z,94668.34
2022-10-14T12:36:01.988Z,94666.13
2022-10-14T12:38:30.678Z,94675.00
2022-10-14T12:41:33.538Z,94658.72
2022-10-14T12:44:05.446Z,94669.47
2022-10-14T12:46:32.205Z,94675.53
2022-10-14T12:49:00.487Z,94664.63
2022-10-14T12:51:27.469Z,94667.63
2022-10-14T12:54:07.164Z,94673.53
2022-10-14T12:56:38.508Z,94676.31
2022-10-14T12:59:08.937Z,94674.84
2022-10-14T13:01:36.778Z,94666.56
2022-10-14T13:04:08.257Z,94661.84
2022-10-14T13:06:44.335Z,94652.16
2022-10-14T13:09:15.180Z,94656.41
2022-10-14T13:11:44.107Z,94659.06
2022-10-14T13:14:55.079Z,94644.06
2022-10-14T13:17:46.808Z,94646.31
2022-10-14T13:20:35.631Z,94650.31
2022-10-14T13:23:40.338Z,94641.50
2022-10-14T13:26:22.670Z,94642.22
2022-10-14T13:29:11.195Z,94640.28
2022-10-14T13:32:22.730Z,94637.09
2022-10-14T13:35:13.120Z,94635.69
2022-10-14T13:37:46.101Z,94631.09
2022-10-14T13:40:29.239Z,94632.72
2022-10-14T13:43:15.414Z,94626.69
2022-10-14T13:45:45.418Z,94622.09
2022-10-14T13:48:37.437Z,94609.06
2022-10-14T13:51:36.697Z,94608.31
2022-10-14T13:54:23.021Z,94613.44
2022-10-14T14:02:44.191Z,94606.03
2022-10-14T14:05:16.348Z,94593.81
2022-10-14T14:10:31.312Z,94595.44
2022-10-14T14:13:02.943Z,94600.75
2022-10-14T14:15:33.598Z,94596.16
2022-10-14T14:18:00.234Z,94586.22
2022-10-14T14:20:34.091Z,94604.97
2022-10-14T14:23:00.736Z,94596.66
2022-10-14T14:25:35.770Z,94603.25
2022-10-14T14:28:06.172Z,94601.28
2022-10-14T14:30:37.576Z,94602.25
2022-10-14T14:33:12.312Z,94594.81
2022-10-14T14:35:40.920Z,94612.09
2022-10-14T14:38:25.162Z,94603.25
2022-10-14T14:41:01.426Z,94609.78
2022-10-14T14:43:34.747Z,94611.56
2022-10-14T14:46:03.061Z,94598.31
2022-10-14T14:48:31.394Z,94606.97
2022-10-14T14:50:58.691Z,94594.22
2022-10-14T14:53:31.855Z,94594.94
2022-10-14T14:56:14.382Z,94594.94
2022-10-14T14:58:47.321Z,94592.81
2022-10-14T15:01:22.610Z,94591.38
2022-10-14T15:04:12.043Z,94587.88
2022-10-14T15:06:41.091Z,94592.22
2022-10-14T15:09:35.998Z,94587.78
2022-10-14T15:12:06.101Z,94577.91
2022-10-14T15:14:47.772Z,94566.59
2022-10-14T15:17:29.410Z,94580.03
2022-10-14T15:19:58.177Z,94580.56
2022-10-14T15:22:32.109Z,94574.19
2022-10-14T15:25:21.729Z,94569.06
2022-10-14T15:28:02.172Z,94571.34
2022-10-14T15:30:32.889Z,94570.81
2022-10-14T15:33:02.119Z,94575.25
2022-10-14T15:35:29.701Z,94577.34
2022-10-14T15:37:57.147Z,94564.66
2022-10-14T15:40:28.794Z,94565.16
2022-10-14T15:42:55.952Z,94563.75
2022-10-14T15:45:23.288Z,94558.25
2022-10-14T15:47:54.451Z,94560.72
2022-10-14T15:50:26.008Z,94560.72
2022-10-14T15:52:54.177Z,94555.25
2022-10-14T15:55:30.149Z,94557.19
2022-10-14T15:57:57.326Z,94564.22
2022-10-14T16:00:26.893Z,94566.88
2022-10-14T16:03:02.000Z,94560.13
2022-10-14T16:05:29.587Z,94562.63
2022-10-14T16:07:57.482Z,94564.56
2022-10-14T16:10:28.115Z,94558.56
2022-10-14T16:12:57.371Z,94557.66
2022-10-14T16:15:43.109Z,94556.94
2022-10-14T16:18:09.776Z,94549.66
2022-10-14T16:20:36.484Z,94559.53
2022-10-14T16:23:04.744Z,94550.91
2022-10-14T16:25:35.438Z,94554.75
2022-10-14T16:28:04.287Z,94555.81
2022-10-14T16:30:33.102Z,94555.81
2022-10-14T16:32:59.913Z,94555.13
2022-10-14T16:35:26.581Z,94551.03
2022-10-14T16:37:53.295Z,94550.84
2022-10-14T16:40:20.048Z,94554.03
2022-10-14T16:42:47.016Z,94556.47
2022-10-14T16:45:14.124Z,94551.50
2022-10-14T16:47:41.301Z,94546.22
2022-10-14T16:50:09.377Z,94548.69
2022-10-14T16:52:54.972Z,94550.44
2022-10-14T16:55:22.553Z,94550.94
2022-10-14T16:57:49.702Z,94543.00
2022-10-14T17:02:45.499Z,94549.34
2022-10-14T17:05:12.235Z,94552.50
2022-10-14T17:07:38.976Z,94558.31
2022-10-14T17:10:06.430Z,94560.25
2022-10-14T17:12:33.797Z,94562.69
2022-10-14T17:15:00.517Z,94569.22
2022-10-14T17:17:30.366Z,94566.41
2022-10-14T17:19:57.009Z,94567.94
2022-10-14T17:22:24.400Z,94564.63
2022-10-14T17:24:51.294Z,94571.09
2022-10-14T17:27:24.289Z,94566.34
2022-10-14T17:29:51.219Z,94561.56
2022-10-14T17:32:18.375Z,94562.63
2022-10-14T17:34:45.238Z,94567.16
2022-10-14T17:37:11.926Z,94563.81
2022-10-14T17:39:38.765Z,94561.00
2022-10-14T17:42:05.555Z,94556.19
2022-10-14T17:44:33.273Z,94558.84
2022-10-14T17:47:01.356Z,94560.41
2022-10-14T17:49:29.513Z,94560.88
2022-10-14T17:51:56.147Z,94563.78
2022-10-14T17:54:22.772Z,94564.78
2022-10-14T17:56:49.645Z,94564.06
2022-10-14T17:59:16.335Z,94569.34
2022-10-14T18:02:01.706Z,94562.28
2022-10-14T18:04:29.851Z,94566.34
2022-10-14T18:06:59.803Z,94561.69
2022-10-14T18:09:26.508Z,94570.53
2022-10-14T18:12:08.272Z,94579.22
2022-10-14T18:14:36.113Z,94583.91
2022-10-14T18:17:02.945Z,94577.41
2022-10-14T18:19:29.650Z,94561.66
2022-10-14T18:21:56.400Z,94567.94
2022-10-14T18:24:23.641Z,94562.34
2022-10-14T18:26:51.107Z,94563.06
2022-10-14T18:29:17.785Z,94563.78
2022-10-14T18:31:44.712Z,94553.19
2022-10-14T18:34:11.825Z,94566.41
2022-10-14T18:36:41.424Z,94560.91
2022-10-14T18:39:11.406Z,94563.56
2022-10-14T18:41:38.399Z,94558.28
2022-10-14T18:44:06.355Z,94562.84
2022-10-14T18:46:37.767Z,94561.44
2022-10-14T18:49:06.618Z,94560.00
2022-10-14T18:51:36.425Z,94567.25
2022-10-14T18:54:06.581Z,94554.53
2022-10-14T18:56:36.710Z,94543.25
2022-10-14T18:59:09.165Z,94542.53
2022-10-14T19:01:37.512Z,94539.19
2022-10-14T19:04:09.356Z,94533.72
2022-10-14T19:06:36.503Z,94528.44
2022-10-14T19:09:04.364Z,94525.78
2022-10-14T19:11:33.697Z,94527.00
2022-10-14T19:14:03.739Z,94520.28
2022-10-14T19:16:34.115Z,94522.19
2022-10-14T19:19:15.218Z,94513.56
2022-10-14T19:21:42.219Z,94503.50
2022-10-14T19:24:10.512Z,94501.56
2022-10-14T19:26:43.942Z,94495.91
2022-10-14T19:29:14.209Z,94491.31
2022-10-14T19:31:44.339Z,94501.19
2022-10-14T19:34:13.784Z,94489.91
2022-10-14T19:36:41.580Z,94486.53
2022-10-14T19:39:11.473Z,94483.88
2022-10-14T19:41:43.072Z,94493.03
2022-10-14T19:44:11.452Z,94483.72
2022-10-14T19:46:38.691Z,94493.03
2022-10-14T19:49:05.785Z,94484.22
2022-10-14T19:51:33.450Z,94488.81
2022-10-14T19:54:00.676Z,94488.09
2022-10-14T19:56:28.298Z,94493.72
2022-10-14T19:58:57.522Z,94498.78
2022-10-14T20:01:27.121Z,94500.22
2022-10-14T20:03:55.147Z,94503.59
2022-10-14T20:06:23.950Z,94503.59
2022-10-14T20:08:51.643Z,94501.44
2022-10-14T20:11:22.753Z,94494.22
2022-10-14T20:13:50.127Z,94496.84
2022-10-14T20:16:17.650Z,94496.16
2022-10-14T20:18:47.567Z,94488.72
2022-10-14T20:21:16.197Z,94494.00
2022-10-14T20:23:43.813Z,94489.06
2022-10-14T20:26:18.632Z,94488.53
2022-10-14T20:28:46.509Z,94489.28
2022-10-14T20:31:20.757Z,94483.97
2022-10-14T20:33:47.876Z,94482.53
2022-10-14T20:36:19.756Z,94477.97
2022-10-14T20:38:47.634Z,94476.06
2022-10-14T20:41:20.279Z,94473.19
2022-10-14T20:43:47.697Z,94473.91
2022-10-14T20:46:15.451Z,94477.75
2022-10-14T20:48:42.969Z,94469.81
2022-10-14T20:51:13.352Z,94470.38
2022-10-14T20:56:11.623Z,94467.53
2022-10-14T20:58:38.846Z,94465.59
2022-10-14T21:01:12.246Z,94459.59
2022-10-14T21:03:40.500Z,94462.25
2022-10-14T21:06:10.030Z,94459.38
2022-10-14T21:08:38.009Z,94459.91
2022-10-14T21:11:10.507Z,94461.84
2022-10-14T21:13:41.583Z,94449.84
2022-10-14T21:16:33.633Z,94445.78
2022-10-14T21:19:05.837Z,94437.88
2022-10-14T21:21:45.558Z,94432.38
2022-10-14T21:24:16.918Z,94424.97
2022-10-14T21:26:45.151Z,94430.78
2022-10-14T21:29:12.562Z,94419.47
2022-10-14T21:31:39.864Z,94429.69
2022-10-14T21:34:07.441Z,94423.88
2022-10-14T21:36:35.757Z,94422.66
2022-10-14T21:39:14.664Z,94423.88
2022-10-14T21:41:42.317Z,94423.66
2022-10-14T21:44:11.156Z,94419.13
2022-10-14T21:46:38.290Z,94419.94
2022-10-14T21:49:05.326Z,94408.16
2022-10-14T21:51:33.229Z,94404.97
2022-10-14T21:54:00.569Z,94401.97
2022-10-14T21:56:27.763Z,94403.16
2022-10-14T21:58:54.954Z,94407.59
2022-10-14T22:01:26.269Z,94399.22
2022-10-14T22:04:01.363Z,94404.00
2022-10-14T22:06:29.295Z,94399.94
2022-10-14T22:08:58.217Z,94397.44
2022-10-14T22:11:28.817Z,94386.56
2022-10-14T22:13:57.653Z,94386.16
2022-10-14T22:16:25.801Z,94380.88
2022-10-14T22:18:54.050Z,94381.50
2022-10-14T22:21:26.023Z,94378.34
2022-10-14T22:23:53.565Z,94376.22
2022-10-14T22:26:23.899Z,94359.66
2022-10-14T22:29:23.799Z,94365.28
2022-10-14T22:31:50.709Z,94361.94
2022-10-14T22:34:18.886Z,94357.56
2022-10-14T22:36:46.187Z,94354.53
2022-10-14T22:39:16.023Z,94347.31
2022-10-14T22:41:43.102Z,94339.88
2022-10-14T22:44:10.525Z,94342.03
2022-10-14T22:46:39.783Z,94331.97
2022-10-14T22:49:07.367Z,94334.59
2022-10-14T22:51:37.650Z,94336.03
2022-10-14T22:54:04.860Z,94326.13
2022-10-14T22:56:32.731Z,94331.06
2022-10-14T22:59:03.260Z,94324.88
2022-10-14T23:01:31.339Z,94324.38
2022-10-14T23:03:59.307Z,94316.56
2022-10-14T23:06:27.345Z,94314.13
2022-10-14T23:08:54.802Z,94317.28
2022-10-14T23:11:23.897Z,94312.72
2022-10-14T23:13:51.289Z,94313.94
2022-10-14T23:16:24.153Z,94306.72
2022-10-14T23:18:51.856Z,94306.44
2022-10-14T23:21:25.507Z,94300.66
2022-10-14T23:23:53.339Z,94310.00
2022-10-14T23:26:23.175Z,94305.75
2022-10-14T23:28:55.384Z,94301.16
2022-10-14T23:31:25.345Z,94299.94
2022-10-14T23:33:52.753Z,94301.38
2022-10-14T23:36:21.550Z,94301.38
2022-10-14T23:38:49.314Z,94284.31
2022-10-14T23:41:16.601Z,94294.66
2022-10-14T23:43:43.798Z,94296.09
2022-10-14T23:46:11.577Z,94291.13
2022-10-14T23:48:38.867Z,94287.09
2022-10-14T23:51:07.079Z,94292.00
2022-10-14T23:53:34.940Z,94287.47
2022-10-14T23:56:02.857Z,94290.81
2022-10-14T23:58:30.236Z,94276.00
